createdAt,value
2023-02-18T01:32:25.742Z,21.18
2023-02-18T01:33:25.764Z,21.17
2023-02-18T01:34:25.761Z,21.18
2023-02-18T01:35:25.781Z,21.16
2023-02-18T01:36:25.790Z,21.18
2023-02-18T01:38:25.803Z,21.14
2023-02-18T01:39:25.821Z,21.17
2023-02-18T01:40:25.848Z,21.21
2023-02-18T01:41:25.838Z,21.18
2023-02-18T01:42:25.855Z,21.18
2023-02-18T01:43:25.865Z,21.19
2023-02-18T01:44:25.872Z,21.18
2023-02-18T01:45:25.882Z,21.19
2023-02-18T01:46:25.938Z,21.17
2023-02-18T01:47:25.897Z,21.18
2023-02-18T01:48:25.904Z,21.16
2023-02-18T01:49:25.923Z,21.15
2023-02-18T01:50:25.927Z,21.21
2023-02-18T01:51:25.938Z,21.18
2023-02-18T01:52:25.966Z,21.22
2023-02-18T01:53:25.962Z,21.19
2023-02-18T01:54:25.968Z,21.18
2023-02-18T01:55:25.984Z,21.23
2023-02-18T01:56:25.995Z,21.21
2023-02-18T01:57:26.009Z,21.21
2023-02-18T01:58:26.038Z,21.19
2023-02-18T01:59:26.038Z,21.22
2023-02-18T02:00:26.039Z,21.15
2023-02-18T02:01:26.065Z,21.17
2023-02-18T02:02:26.058Z,21.17
2023-02-18T02:03:26.084Z,21.14
2023-02-18T02:04:26.096Z,21.18
2023-02-18T02:05:26.107Z,21.21
2023-02-18T02:06:26.109Z,21.22
2023-02-18T02:07:26.121Z,21.21
2023-02-18T02:08:26.122Z,21.19
2023-02-18T02:09:26.129Z,21.22
2023-02-18T02:10:26.140Z,21.20
2023-02-18T02:11:26.157Z,21.16
2023-02-18T02:12:26.159Z,21.21
2023-02-18T02:13:26.159Z,21.20
2023-02-18T02:14:26.158Z,21.19
2023-02-18T02:15:26.169Z,21.21
2023-02-18T02:16:26.236Z,21.12
2023-02-18T02:17:26.170Z,21.19
2023-02-18T02:18:26.173Z,21.21
2023-02-18T02:19:26.175Z,21.21
2023-02-18T02:20:26.177Z,21.20
2023-02-18T02:21:26.196Z,21.19
2023-02-18T02:22:26.172Z,21.14
2023-02-18T02:23:26.176Z,21.20
2023-02-18T02:24:26.153Z,21.20
2023-02-18T02:25:26.154Z,21.20
2023-02-18T02:26:26.138Z,21.24
2023-02-18T02:27:26.124Z,21.20
2023-02-18T02:28:26.144Z,21.24
2023-02-18T02:29:26.113Z,21.21
2023-02-18T02:30:26.142Z,21.21
2023-02-18T02:31:26.175Z,21.23
2023-02-18T02:32:26.085Z,21.20
2023-02-18T02:33:26.068Z,21.21
2023-02-18T02:34:26.067Z,21.24
2023-02-18T02:35:26.053Z,21.23
2023-02-18T02:36:26.048Z,21.23
2023-02-18T02:37:26.031Z,21.25
2023-02-18T02:38:26.026Z,21.23
2023-02-18T02:39:26.026Z,21.23
2023-02-18T02:40:27.602Z,21.24
2023-02-18T02:41:25.997Z,21.23
2023-02-18T02:42:25.984Z,21.22
2023-02-18T02:43:25.981Z,21.20
2023-02-18T02:44:25.982Z,21.21
2023-02-18T02:45:25.989Z,21.21
2023-02-18T02:46:25.959Z,21.22
2023-02-18T02:47:25.941Z,21.22
2023-02-18T02:48:25.940Z,21.20
2023-02-18T02:49:25.922Z,21.18
2023-02-18T02:50:25.917Z,21.21
2023-02-18T02:51:25.907Z,21.21
2023-02-18T02:52:25.913Z,21.21
2023-02-18T02:53:25.885Z,21.15
2023-02-18T02:54:25.931Z,21.20
2023-02-18T02:55:25.875Z,21.20
2023-02-18T02:56:25.865Z,21.26
2023-02-18T02:57:25.864Z,21.19
2023-02-18T02:58:25.838Z,21.21
2023-02-18T02:59:25.834Z,21.23
2023-02-18T03:00:25.826Z,21.19
2023-02-18T03:01:25.833Z,21.12
2023-02-18T03:02:25.806Z,21.18
2023-02-18T03:03:25.891Z,21.17
2023-02-18T03:04:25.814Z,21.20
2023-02-18T03:05:25.800Z,21.23
2023-02-18T03:06:25.801Z,21.21
2023-02-18T03:07:25.779Z,21.23
2023-02-18T03:08:25.788Z,21.20
2023-02-18T03:09:25.784Z,21.22
2023-02-18T03:10:25.792Z,21.21
2023-02-18T03:11:25.762Z,21.23
2023-02-18T03:12:25.770Z,21.24
2023-02-18T03:13:25.755Z,21.25
2023-02-18T03:14:25.771Z,21.21
2023-02-18T03:15:25.748Z,21.22
2023-02-18T03:16:25.833Z,21.21
2023-02-18T03:17:25.741Z,21.20
2023-02-18T03:18:25.737Z,21.21
2023-02-18T03:19:25.730Z,21.22
2023-02-18T03:20:25.740Z,21.14
2023-02-18T03:21:25.722Z,21.21
2023-02-18T03:22:25.711Z,21.17
2023-02-18T03:23:25.705Z,21.22
2023-02-18T03:24:25.728Z,21.24
2023-02-18T03:25:25.700Z,21.23
2023-02-18T03:26:25.694Z,21.19
2023-02-18T03:27:25.694Z,21.20
2023-02-18T03:28:25.696Z,21.22
2023-02-18T03:29:25.731Z,21.22
2023-02-18T03:30:25.736Z,21.20
2023-02-18T03:31:25.802Z,21.22
2023-02-18T03:32:25.686Z,21.18
2023-02-18T03:33:25.670Z,21.16
2023-02-18T03:34:25.687Z,21.24
2023-02-18T03:35:25.659Z,21.21
2023-02-18T03:36:25.659Z,21.24
2023-02-18T03:37:25.648Z,21.24
2023-02-18T03:38:25.656Z,21.26
2023-02-18T03:39:25.646Z,21.25
2023-02-18T03:40:25.624Z,21.25
2023-02-18T03:41:25.614Z,21.17
2023-02-18T03:42:25.617Z,21.23
2023-02-18T03:43:25.589Z,21.23
2023-02-18T03:44:25.590Z,21.17
2023-02-18T03:45:25.568Z,21.21
2023-02-18T03:46:25.580Z,21.21
2023-02-18T03:47:25.559Z,21.18
2023-02-18T03:48:25.534Z,21.16
2023-02-18T03:49:25.532Z,21.19
2023-02-18T03:50:25.519Z,21.19
2023-02-18T03:51:25.510Z,21.16
2023-02-18T03:52:25.499Z,21.20
2023-02-18T03:53:25.499Z,21.18
2023-02-18T03:54:25.496Z,21.17
2023-02-18T03:55:25.477Z,21.18
2023-02-18T03:56:25.474Z,21.18
2023-02-18T03:57:25.469Z,21.23
2023-02-18T03:58:25.467Z,21.24
2023-02-18T03:59:25.472Z,21.19
2023-02-18T04:00:25.477Z,21.23
2023-02-18T04:01:25.503Z,21.24
2023-02-18T04:02:25.483Z,21.20
2023-02-18T04:03:25.474Z,21.16
2023-02-18T04:04:25.484Z,21.20
2023-02-18T04:05:25.488Z,21.22
2023-02-18T04:06:25.461Z,21.17
2023-02-18T04:07:25.455Z,21.18
2023-02-18T04:08:25.454Z,21.21
2023-02-18T04:09:25.448Z,21.21
2023-02-18T04:10:25.451Z,21.18
2023-02-18T04:11:25.426Z,21.22
2023-02-18T04:12:25.427Z,21.23
2023-02-18T07:31:26.660Z,21.24
2023-02-18T07:32:26.580Z,21.20
2023-02-18T07:33:26.597Z,21.23
2023-02-18T07:34:26.606Z,21.19
2023-02-18T07:35:26.602Z,21.23
2023-02-18T07:36:26.610Z,21.23
2023-02-18T07:37:26.600Z,21.24
2023-02-18T07:38:26.596Z,21.25
2023-02-18T07:39:26.584Z,21.22
2023-02-18T07:40:26.562Z,21.22
2023-02-18T07:41:26.566Z,21.23
2023-02-18T07:42:26.559Z,21.25
2023-02-18T07:43:26.556Z,21.24
2023-02-18T07:44:26.531Z,21.25
2023-02-18T07:45:26.548Z,21.24
2023-02-18T07:46:26.519Z,21.22
2023-02-18T07:47:26.528Z,21.22
2023-02-18T07:48:26.501Z,21.24
2023-02-18T07:49:26.507Z,21.23
2023-02-18T07:50:26.489Z,21.25
2023-02-18T07:51:26.483Z,21.21
2023-02-18T07:53:26.453Z,21.19
2023-02-18T08:56:25.563Z,21.08
2023-02-18T08:57:25.544Z,21.04
2023-02-18T08:58:25.524Z,21.06
2023-02-18T08:59:25.513Z,21.05
2023-02-18T09:00:25.482Z,21.06
2023-02-18T09:01:25.554Z,21.05
2023-02-18T09:02:25.453Z,21.04
2023-02-18T09:03:25.428Z,21.05
2023-02-18T09:04:25.421Z,21.03
2023-02-18T09:05:25.394Z,21.04
2023-02-18T09:06:25.368Z,21.03
2023-02-18T09:07:25.353Z,21.02
2023-02-18T09:08:25.340Z,21.04
2023-02-18T09:09:25.325Z,21.03
2023-02-18T09:10:25.326Z,21.04
2023-02-18T09:12:25.272Z,21.00
2023-02-18T09:13:25.256Z,21.02
2023-02-18T09:14:25.241Z,20.97
2023-02-18T09:15:25.253Z,20.96
2023-02-18T09:16:26.298Z,20.97
2023-02-18T09:17:25.181Z,20.97
2023-02-18T09:18:25.153Z,20.96
2023-02-18T09:19:25.136Z,20.97
2023-02-18T09:20:25.111Z,20.95
2023-02-18T09:21:25.095Z,20.93
2023-02-18T09:22:25.067Z,20.91
2023-02-18T09:23:25.041Z,20.91
2023-02-18T09:24:25.020Z,20.91
2023-02-18T09:25:25.007Z,20.90
2023-02-18T09:26:24.985Z,20.88
2023-02-18T09:27:24.959Z,20.87
2023-02-18T09:28:24.926Z,20.87
2023-02-18T09:29:24.907Z,20.87
2023-02-18T09:30:24.909Z,20.86
2023-02-18T09:31:24.964Z,20.87
2023-02-18T09:32:34.225Z,20.85
2023-02-18T09:33:25.811Z,20.87
2023-02-18T09:34:24.790Z,20.87
2023-02-18T09:35:24.753Z,20.88
2023-02-18T09:36:24.749Z,20.86
2023-02-18T09:37:24.718Z,20.88
2023-02-18T09:38:24.684Z,20.87
2023-02-18T09:39:24.662Z,20.85
2023-02-18T09:40:24.634Z,20.82
2023-02-18T09:41:24.627Z,20.83
2023-02-18T09:42:24.588Z,20.83
2023-02-18T09:43:24.558Z,20.81
2023-02-18T09:44:24.529Z,20.81
2023-02-18T09:45:24.518Z,20.81
2023-02-18T09:46:24.535Z,20.80
2023-02-18T09:47:24.467Z,20.80
2023-02-18T09:48:26.640Z,20.80
2023-02-18T09:49:24.435Z,20.80
2023-02-18T09:50:24.397Z,20.84
2023-02-18T09:51:24.372Z,20.82
2023-02-18T09:52:24.338Z,20.81
2023-02-18T09:53:24.319Z,20.78
2023-02-18T09:54:24.297Z,20.77
2023-02-18T09:55:24.277Z,20.77
2023-02-18T09:56:24.245Z,20.79
2023-02-18T09:57:24.203Z,20.77
2023-02-18T09:58:24.177Z,20.77
2023-02-18T09:59:24.169Z,20.78
2023-02-18T10:00:24.210Z,20.77
2023-02-18T10:01:24.267Z,20.78
2023-02-18T10:02:24.286Z,20.75
2023-02-18T10:03:24.360Z,20.75
2023-02-18T10:04:24.378Z,20.77
2023-02-18T10:05:24.421Z,20.77
2023-02-18T10:06:24.461Z,20.76
2023-02-18T10:07:25.880Z,20.78
2023-02-18T10:08:24.501Z,20.77
2023-02-18T10:09:24.483Z,20.78
2023-02-18T10:10:24.465Z,20.77
2023-02-18T10:11:24.439Z,20.80
2023-02-18T10:12:24.437Z,20.77
2023-02-18T10:13:24.417Z,20.75
2023-02-18T10:14:24.402Z,20.76
2023-02-18T10:15:24.380Z,20.72
2023-02-18T10:16:24.481Z,20.73
2023-02-18T10:17:24.347Z,20.72
2023-02-18T10:18:24.329Z,20.71
2023-02-18T10:19:24.305Z,20.70
2023-02-18T10:20:24.306Z,20.68
2023-02-18T10:21:24.278Z,20.68
2023-02-18T10:22:24.256Z,20.67
2023-02-18T10:23:24.241Z,20.66
2023-02-18T10:24:24.224Z,20.67
2023-02-18T10:25:24.184Z,20.64
2023-02-18T10:26:24.155Z,20.61
2023-02-18T10:27:24.129Z,20.60
2023-02-18T10:28:24.128Z,20.60
2023-02-18T10:29:24.087Z,20.61
2023-02-18T10:30:24.112Z,20.58
2023-02-18T10:31:24.127Z,20.58
2023-02-18T10:32:24.032Z,20.57
2023-02-18T10:33:24.030Z,20.58
2023-02-18T10:34:23.996Z,20.58
2023-02-18T10:35:23.980Z,20.59
2023-02-18T10:36:23.956Z,20.59
2023-02-18T10:37:23.936Z,20.56
2023-02-18T10:38:23.896Z,20.55
2023-02-18T10:39:23.863Z,20.53
2023-02-18T10:40:23.827Z,20.54
2023-02-18T10:41:23.792Z,20.53
2023-02-18T10:42:23.757Z,20.51
2023-02-18T10:43:23.735Z,20.50
2023-02-18T10:44:23.688Z,20.48
2023-02-18T10:45:23.653Z,20.48
2023-02-18T10:46:23.625Z,20.48
2023-02-18T10:47:23.580Z,20.48
2023-02-18T10:48:23.544Z,20.46
2023-02-18T10:49:23.539Z,20.47
2023-02-18T10:50:23.473Z,20.49
2023-02-18T10:51:23.444Z,20.51
2023-02-18T10:52:23.414Z,20.54
2023-02-18T10:53:23.376Z,20.56
2023-02-18T10:54:23.332Z,20.59
2023-02-18T10:55:23.306Z,20.61
2023-02-18T10:56:23.273Z,20.64
2023-02-18T10:57:23.223Z,20.64
2023-02-18T10:58:23.184Z,20.65
2023-02-18T10:59:23.148Z,20.69
2023-02-18T11:00:23.104Z,20.71
2023-02-18T11:01:23.094Z,20.74
2023-02-18T11:02:23.034Z,20.76
2023-02-18T11:03:22.992Z,20.77
2023-02-18T11:04:22.965Z,20.76
2023-02-18T11:05:22.916Z,20.76
2023-02-18T11:06:22.872Z,20.77
2023-02-18T11:07:22.846Z,20.78
2023-02-18T11:08:22.800Z,20.79
2023-02-18T11:09:22.782Z,20.79
2023-02-18T11:10:22.733Z,20.76
2023-02-18T11:11:22.708Z,20.73
2023-02-18T11:12:22.706Z,20.72
2023-02-18T11:13:22.623Z,20.69
2023-02-18T11:14:22.594Z,20.71
2023-02-18T11:15:22.593Z,20.66
2023-02-18T11:16:22.623Z,20.67
2023-02-18T11:17:22.533Z,20.66
2023-02-18T11:18:22.510Z,20.69
2023-02-18T11:19:22.492Z,20.69
2023-02-18T11:20:22.465Z,20.69
2023-02-18T11:21:22.443Z,20.71
2023-02-18T11:22:22.432Z,20.70
2023-02-18T11:23:22.427Z,20.68
2023-02-18T11:24:22.399Z,20.70
2023-02-18T11:25:22.383Z,20.66
2023-02-18T11:26:22.368Z,20.61
2023-02-18T11:27:22.345Z,20.59
2023-02-18T11:28:22.327Z,20.55
2023-02-18T11:29:22.305Z,20.53
2023-02-18T11:30:22.383Z,20.56
2023-02-18T11:31:22.328Z,20.56
2023-02-18T11:32:22.279Z,20.55
2023-02-18T11:33:22.208Z,20.55
2023-02-18T11:34:22.175Z,20.57
2023-02-18T11:35:22.173Z,20.59
2023-02-18T11:36:22.122Z,20.62
2023-02-18T11:37:22.098Z,20.63
2023-02-18T11:38:22.065Z,20.63
2023-02-18T11:39:22.024Z,20.60
2023-02-18T11:40:22.016Z,20.62
2023-02-18T11:41:21.985Z,20.61
2023-02-18T11:42:21.951Z,20.63
2023-02-18T11:43:21.912Z,20.62
2023-02-18T11:44:21.891Z,20.62
2023-02-18T11:45:21.854Z,20.63
2023-02-18T11:46:21.834Z,20.64
2023-02-18T11:47:21.821Z,20.63
2023-02-18T11:48:21.784Z,20.63
2023-02-18T11:49:21.753Z,20.61
2023-02-18T11:50:21.709Z,20.62
2023-02-18T11:51:21.697Z,20.62
2023-02-18T11:52:21.668Z,20.62
2023-02-18T11:53:21.636Z,20.61
2023-02-18T11:54:21.596Z,20.59
2023-02-18T11:55:21.563Z,20.60
2023-02-18T11:56:21.528Z,20.60
2023-02-18T11:57:21.497Z,20.59
2023-02-18T11:58:21.490Z,20.60
2023-02-18T11:59:21.444Z,20.59
2023-02-18T12:00:21.422Z,20.60
2023-02-18T12:01:21.372Z,20.60
2023-02-18T12:02:21.415Z,20.59
2023-02-18T12:03:21.323Z,20.58
2023-02-18T12:04:21.297Z,20.56
2023-02-18T12:05:21.290Z,20.58
2023-02-18T12:43:20.015Z,20.40
2023-02-18T12:45:19.935Z,20.40
2023-02-18T16:07:12.631Z,20.52
2023-02-18T16:08:12.584Z,20.58
2023-02-18T16:09:12.552Z,20.56
2023-02-18T16:10:12.516Z,20.57
2023-02-18T16:11:12.520Z,20.54
2023-02-18T16:12:12.468Z,20.58
2023-02-18T16:13:12.440Z,20.57
2023-02-18T16:14:12.411Z,20.53
2023-02-18T16:15:12.391Z,20.55
2023-02-18T16:16:12.602Z,20.59
2023-02-18T16:17:12.323Z,20.60
2023-02-18T16:18:12.290Z,20.60
2023-02-18T16:19:12.273Z,20.61
2023-02-18T16:20:12.249Z,20.60
2023-02-18T16:21:12.222Z,20.60
2023-02-18T16:22:12.192Z,20.60
2023-02-18T16:23:12.167Z,20.63
2023-02-18T16:24:12.125Z,20.63
2023-02-18T16:25:12.101Z,20.63
2023-02-18T16:26:12.067Z,20.57
2023-02-18T16:27:12.036Z,20.55
2023-02-18T16:28:12.010Z,20.56
2023-02-18T16:29:13.826Z,20.59
2023-02-18T16:30:11.984Z,20.58
2023-02-18T16:31:12.007Z,20.62
2023-02-18T16:32:12.030Z,20.65
2023-02-18T16:33:11.882Z,20.69
2023-02-18T16:34:11.859Z,20.62
2023-02-18T16:35:11.814Z,20.62
2023-02-18T16:36:11.785Z,20.58
2023-02-18T16:37:11.776Z,20.62
2023-02-18T16:38:11.744Z,20.68
2023-02-18T16:39:11.717Z,20.65
2023-02-18T16:40:11.776Z,20.68
2023-02-18T16:41:11.755Z,20.68
2023-02-18T16:42:11.795Z,20.64
2023-02-18T16:43:11.840Z,20.67
2023-02-18T16:44:11.849Z,20.61
2023-02-18T16:45:11.886Z,20.62
2023-02-18T16:46:12.296Z,20.63
2023-02-18T16:47:11.902Z,20.58
2023-02-18T16:48:11.897Z,20.63
2023-02-18T16:49:11.852Z,20.68
2023-02-18T16:50:11.831Z,20.69
2023-02-18T16:51:11.791Z,20.68
2023-02-18T16:52:11.784Z,20.64
2023-02-18T16:53:11.739Z,20.65
2023-02-18T16:54:11.725Z,20.65
2023-02-18T16:55:11.766Z,20.63
2023-02-18T16:56:11.812Z,20.68
2023-02-18T16:57:11.834Z,20.63
2023-02-18T16:58:11.876Z,20.72
2023-02-18T16:59:11.838Z,20.67
2023-02-18T17:00:11.808Z,20.69
2023-02-18T17:01:11.858Z,20.65
2023-02-18T17:02:11.756Z,20.68
2023-02-18T17:03:11.734Z,20.64
2023-02-18T17:04:11.749Z,20.67
2023-02-18T17:05:25.491Z,20.68
2023-02-18T17:06:11.983Z,20.68
2023-02-18T17:07:11.640Z,20.68
2023-02-18T17:08:11.592Z,20.59
2023-02-18T17:09:13.499Z,20.65
2023-02-18T17:10:11.553Z,20.68
2023-02-18T17:11:11.528Z,20.69
2023-02-18T17:12:11.499Z,20.64
2023-02-18T17:13:11.467Z,20.68
2023-02-18T17:14:11.450Z,20.67
2023-02-18T17:15:11.405Z,20.69
2023-02-18T17:16:11.810Z,20.62
2023-02-18T17:17:11.369Z,20.72
2023-02-18T17:18:11.326Z,20.66
2023-02-18T17:19:11.315Z,20.66
2023-02-18T17:20:11.274Z,20.58
2023-02-18T17:21:11.260Z,20.61
2023-02-18T20:52:06.690Z,20.56
2023-02-18T20:53:06.673Z,20.63
2023-02-18T20:54:06.666Z,20.63
2023-02-18T20:55:06.639Z,20.66
2023-02-18T20:56:06.639Z,20.67
2023-02-18T20:57:06.613Z,20.63
2023-02-18T20:58:06.620Z,20.64
2023-02-18T20:59:06.605Z,20.66
2023-02-18T21:00:06.572Z,20.66
2023-02-18T21:01:06.616Z,20.60
2023-02-18T21:02:06.606Z,20.63
2023-02-18T21:03:06.580Z,20.63
2023-02-18T21:04:06.499Z,20.64
2023-02-18T21:05:06.506Z,20.65
2023-02-18T21:06:06.478Z,20.64
2023-02-18T21:07:06.441Z,20.58
2023-02-18T21:08:06.430Z,20.66
2023-02-18T21:09:06.425Z,20.60
2023-02-18T21:10:06.406Z,20.63
2023-02-18T21:11:06.389Z,20.66
2023-02-18T21:12:06.376Z,20.64
2023-02-18T21:13:06.355Z,20.58
2023-02-18T21:14:06.332Z,20.64
2023-02-18T21:19:06.272Z,20.64
2023-02-18T22:01:05.724Z,20.63
